X  Sluiten METAR luchtvaart weer gegevens      EHRD Rotterdam The Hague Airport
Temperatuur
17°C Temperatuur
15°C Dauwpunt
88% Vochtigheid



Wind
8 KM/U
5 MPH
2 M/S
4 KTS



20°
NNO
Huidig weer

Lichte Buien, Regen Lichte Buien, Regen
Luchtdruk 1012.87 (hPa) - 29.91 (inHg)
Zicht 5.6 (mijl) - 9 (km)
Vliegveld
Vliegveld code EHRD

Locatie : Rotterdam The Hague Airport
Afstand: 11 (km)

Metar:
EHRD 181455Z AUTO 02004KT 340V060 9000 -SHRA SCT015CB 17/15 Q1013 REDZ NOSIG

Tijd: 18-06-2024 16:55 CEST